Time;durP1;ratioP1;P1;durP2;ratioP2;P2;SDS_P1;SDS_P2;PMS_P1;PMS_P2;Temp;Humidity;BMP_temperature;BMP_pressure;BME280_temperature;BME280_humidity;BME280_pressure;Samples;Min_cycle;Max_cycle;Signal;HPM_P1;HPM_P2
2024/02/19 00:01:42;;;;;;;14.98;4.05;;;10.10;99.90;;;;;;5057029;28;20072;-86
2024/02/19 00:04:10;;;;;;;21.42;3.75;;;10.00;99.90;;;;;;5057395;28;20468;-86
2024/02/19 00:06:36;;;;;;;17.05;3.10;;;10.10;99.90;;;;;;5073972;28;20475;-84
2024/02/19 00:09:02;;;;;;;17.58;4.13;;;10.10;99.90;;;;;;5057286;28;20060;-86
2024/02/19 00:11:37;;;;;;;14.75;3.47;;;10.10;99.90;;;;;;5074049;28;20498;-86
2024/02/19 00:14:02;;;;;;;14.27;3.13;;;10.10;99.90;;;;;;5078756;28;20020;-86
2024/02/19 00:16:28;;;;;;;14.95;3.40;;;10.00;99.90;;;;;;5061112;28;20025;-84
2024/02/19 00:18:54;;;;;;;11.68;3.05;;;10.00;99.90;;;;;;5073569;28;20044;-84
2024/02/19 00:21:20;;;;;;;20.38;4.20;;;10.10;99.90;;;;;;5071479;28;20044;-85
2024/02/19 00:23:45;;;;;;;16.45;3.40;;;10.10;99.90;;;;;;5075109;28;20115;-85
2024/02/19 00:26:13;;;;;;;16.90;3.17;;;10.10;99.90;;;;;;5056749;28;20377;-85
2024/02/19 00:28:39;;;;;;;18.08;3.67;;;10.10;99.90;;;;;;5073597;28;20120;-85
2024/02/19 00:31:04;;;;;;;17.65;3.42;;;10.10;99.90;;;;;;5056289;28;20024;-85
2024/02/19 00:33:31;;;;;;;14.63;2.83;;;10.10;99.90;;;;;;5073336;28;20028;-85
2024/02/19 00:36:00;;;;;;;15.23;3.33;;;10.10;99.90;;;;;;5057412;28;20017;-85
2024/02/19 00:38:25;;;;;;;18.50;4.10;;;10.10;99.90;;;;;;5074766;28;20024;-85
2024/02/19 00:40:51;;;;;;;18.25;4.35;;;10.10;99.90;;;;;;5082631;28;20059;-85
2024/02/19 00:43:17;;;;;;;18.65;3.53;;;10.10;99.90;;;;;;5079647;28;20025;-84
2024/02/19 00:45:42;;;;;;;16.08;3.83;;;10.10;99.90;;;;;;5097740;28;20027;-84
2024/02/19 00:48:08;;;;;;;15.93;3.90;;;10.10;99.90;;;;;;5095722;28;20021;-85
2024/02/19 00:50:36;;;;;;;15.57;3.60;;;10.10;99.90;;;;;;5082352;28;20024;-85
2024/02/19 00:53:02;;;;;;;14.40;3.60;;;10.10;99.90;;;;;;5058595;28;20042;-85
2024/02/19 00:55:30;;;;;;;17.80;3.70;;;10.10;99.90;;;;;;5073247;28;20084;-86
2024/02/19 00:57:56;;;;;;;16.27;2.97;;;10.10;99.90;;;;;;5057035;28;20031;-84
2024/02/19 01:00:22;;;;;;;15.75;3.53;;;10.20;99.90;;;;;;5074612;28;20032;-84
2024/02/19 01:02:49;;;;;;;14.75;3.33;;;10.20;99.90;;;;;;5073089;28;20086;-85
2024/02/19 01:05:18;;;;;;;16.08;3.78;;;10.20;99.90;;;;;;5072958;28;20052;-85
2024/02/19 01:07:43;;;;;;;12.10;3.10;;;10.30;99.90;;;;;;5056127;28;20071;-85
2024/02/19 01:10:09;;;;;;;14.90;3.35;;;10.20;99.90;;;;;;5075514;28;20053;-85
2024/02/19 01:12:36;;;;;;;14.43;3.65;;;10.20;99.90;;;;;;5060352;28;20455;-85
2024/02/19 01:15:02;;;;;;;18.83;4.15;;;10.20;99.90;;;;;;5060347;28;20287;-86
2024/02/19 01:17:29;;;;;;;19.98;4.85;;;10.20;99.90;;;;;;5076746;28;20043;-84
2024/02/19 01:19:56;;;;;;;16.23;3.55;;;10.20;99.90;;;;;;5089773;28;20511;-85
2024/02/19 01:22:21;;;;;;;15.93;3.83;;;10.20;99.90;;;;;;5081112;28;20475;-84
2024/02/19 01:24:48;;;;;;;16.25;4.35;;;10.20;99.90;;;;;;5081648;28;20028;-85
2024/02/19 01:27:14;;;;;;;21.75;4.50;;;10.20;99.90;;;;;;5081098;28;20032;-85
2024/02/19 01:29:39;;;;;;;15.73;3.75;;;10.20;99.90;;;;;;5080517;28;20372;-85
2024/02/19 01:32:05;;;;;;;17.75;4.40;;;10.30;99.90;;;;;;5063613;28;20387;-86
2024/02/19 01:34:31;;;;;;;15.32;4.13;;;10.20;99.90;;;;;;5080508;28;20040;-85
2024/02/19 01:37:00;;;;;;;20.55;4.43;;;10.20;99.90;;;;;;5063254;28;20078;-85
2024/02/19 01:39:25;;;;;;;24.40;4.78;;;10.20;99.90;;;;;;5079989;28;20024;-85
2024/02/19 01:41:51;;;;;;;19.85;4.55;;;10.20;99.90;;;;;;5079748;28;20130;-85
2024/02/19 01:44:17;;;;;;;16.13;3.42;;;10.20;99.90;;;;;;5063102;28;20384;-86
2024/02/19 01:46:45;;;;;;;15.70;3.78;;;10.20;99.90;;;;;;5097722;28;20063;-85
2024/02/19 01:49:12;;;;;;;16.80;3.88;;;10.20;99.90;;;;;;5079573;28;20028;-86
2024/02/19 01:51:38;;;;;;;20.00;3.97;;;10.20;99.90;;;;;;5063255;28;20031;-85
2024/02/19 01:54:04;;;;;;;21.50;5.15;;;10.20;99.90;;;;;;5063146;28;20032;-85
2024/02/19 01:56:31;;;;;;;18.70;3.65;;;10.20;99.90;;;;;;5079455;28;20020;-86
2024/02/19 01:58:59;;;;;;;18.60;4.45;;;10.20;99.90;;;;;;5098120;28;20032;-85
2024/02/19 02:01:26;;;;;;;16.35;3.70;;;10.20;99.90;;;;;;5080684;28;20040;-85
2024/02/19 02:03:52;;;;;;;22.05;4.15;;;10.20;99.90;;;;;;5081559;28;20031;-85
2024/02/19 02:06:17;;;;;;;17.33;3.60;;;10.20;99.90;;;;;;5080572;28;20096;-85
2024/02/19 02:08:45;;;;;;;16.35;3.97;;;10.20;99.90;;;;;;5080793;28;20035;-85
2024/02/19 02:11:11;;;;;;;12.95;3.65;;;10.20;99.90;;;;;;5086133;28;20091;-83
2024/02/19 02:13:36;;;;;;;16.05;4.13;;;10.20;99.90;;;;;;5110645;28;20011;-84
2024/02/19 02:16:03;;;;;;;16.27;3.28;;;10.20;99.90;;;;;;5120624;28;20023;-85
2024/02/19 02:18:32;;;;;;;18.17;4.10;;;10.20;99.90;;;;;;5103720;28;20024;-83
2024/02/19 02:21:01;;;;;;;17.80;3.58;;;10.20;99.90;;;;;;5082631;28;20132;-84
2024/02/19 02:23:26;;;;;;;15.48;3.35;;;10.30;99.90;;;;;;5094605;28;20033;-84
2024/02/19 02:25:55;;;;;;;15.52;3.65;;;10.30;99.90;;;;;;5076438;28;20055;-84
2024/02/19 02:28:24;;;;;;;18.00;3.92;;;10.30;99.90;;;;;;5075833;28;20025;-85
2024/02/19 02:30:50;;;;;;;22.02;4.40;;;10.30;99.90;;;;;;5075653;28;20062;-84
2024/02/19 02:33:16;;;;;;;15.80;3.40;;;10.30;99.90;;;;;;5058933;28;20028;-84
2024/02/19 02:35:42;;;;;;;16.40;3.45;;;10.20;99.90;;;;;;5076746;28;20496;-84
2024/02/19 02:38:10;;;;;;;17.58;3.33;;;10.20;99.90;;;;;;5075782;28;20055;-85
2024/02/19 02:40:36;;;;;;;14.40;3.00;;;10.30;99.90;;;;;;5058509;28;20020;-85
2024/02/19 02:43:05;;;;;;;18.70;3.63;;;10.20;99.90;;;;;;5075108;28;20106;-84
2024/02/19 02:45:31;;;;;;;17.48;4.30;;;10.20;99.90;;;;;;5075021;28;20025;-84
2024/02/19 02:47:56;;;;;;;17.95;3.70;;;10.20;99.90;;;;;;5076808;28;20039;-84
2024/02/19 02:50:22;;;;;;;16.08;2.97;;;10.20;99.90;;;;;;5075247;28;20517;-85
2024/02/19 02:52:47;;;;;;;16.13;3.88;;;10.10;99.90;;;;;;5058461;28;20029;-85
2024/02/19 02:55:13;;;;;;;20.58;4.10;;;10.10;99.90;;;;;;5075164;28;20079;-85
2024/02/19 02:57:41;;;;;;;17.45;3.92;;;10.10;99.90;;;;;;5058361;28;20033;-85
2024/02/19 03:00:11;;;;;;;16.38;4.47;;;10.10;99.90;;;;;;5075027;28;20050;-83
2024/02/19 03:02:37;;;;;;;17.45;4.38;;;10.00;99.90;;;;;;5074734;28;20088;-84
2024/02/19 03:05:03;;;;;;;18.92;4.07;;;10.10;99.90;;;;;;5075002;28;20143;-84
2024/02/19 03:07:29;;;;;;;18.70;3.80;;;10.10;99.90;;;;;;5076149;28;20040;-86
2024/02/19 03:09:56;;;;;;;16.73;3.50;;;10.10;99.90;;;;;;5061166;28;20391;-84
2024/02/19 03:12:21;;;;;;;17.60;3.70;;;10.00;99.90;;;;;;5078559;28;20028;-85
2024/02/19 03:14:48;;;;;;;14.77;3.85;;;10.00;99.90;;;;;;5078527;28;20020;-85
2024/02/19 03:17:13;;;;;;;17.40;4.28;;;10.00;99.90;;;;;;5076965;28;20020;-85
2024/02/19 03:19:41;;;;;;;13.82;3.20;;;10.00;99.90;;;;;;5076281;28;20051;-85
2024/02/19 03:22:07;;;;;;;16.38;3.92;;;10.00;99.90;;;;;;5078031;28;20078;-85
2024/02/19 03:24:34;;;;;;;19.67;4.30;;;9.90;99.90;;;;;;5061036;28;20035;-84
2024/02/19 03:27:01;;;;;;;13.63;3.83;;;10.00;99.90;;;;;;5061634;28;20415;-85
2024/02/19 03:29:33;;;;;;;14.95;3.92;;;10.00;99.90;;;;;;5096208;28;20020;-85
2024/02/19 03:31:59;;;;;;;17.17;3.90;;;10.00;99.90;;;;;;5061033;28;20027;-84
2024/02/19 03:34:26;;;;;;;15.80;4.03;;;10.00;99.90;;;;;;5096477;28;20095;-85
2024/02/19 03:36:52;;;;;;;13.63;3.50;;;10.00;99.90;;;;;;5078796;28;20083;-85
2024/02/19 03:39:23;;;;;;;14.57;3.97;;;10.00;99.90;;;;;;5062581;28;20081;-84
2024/02/19 03:41:49;;;;;;;;;;;10.00;99.90;;;;;;5065808;28;20036;-85
2024/02/19 03:44:16;;;;;;;16.45;3.78;;;10.00;99.90;;;;;;5086350;28;19925;-85
2024/02/19 03:46:41;;;;;;;17.85;4.05;;;10.00;99.90;;;;;;5085489;28;20043;-83
2024/02/19 03:49:07;;;;;;;17.58;4.22;;;10.00;99.90;;;;;;5085443;28;20012;-85
2024/02/19 03:51:39;;;;;;;17.23;3.90;;;10.00;99.90;;;;;;5101920;28;20092;-85
2024/02/19 03:54:05;;;;;;;16.88;4.32;;;10.00;99.90;;;;;;5093185;28;20020;-85
2024/02/19 03:56:31;;;;;;;17.48;4.00;;;10.00;99.90;;;;;;5095512;28;20070;-85
2024/02/19 03:58:56;;;;;;;16.02;3.78;;;10.00;99.90;;;;;;5077505;28;20054;-85
2024/02/19 04:01:22;;;;;;;22.30;4.18;;;10.00;99.90;;;;;;5077953;28;20521;-84
2024/02/19 04:03:47;;;;;;;14.73;3.47;;;10.00;99.90;;;;;;5077452;28;20440;-85
2024/02/19 04:06:13;;;;;;;17.95;3.95;;;10.00;99.90;;;;;;5060459;28;20047;-85
2024/02/19 04:08:40;;;;;;;21.95;4.43;;;10.00;99.90;;;;;;5095313;28;20020;-85
2024/02/19 04:11:05;;;;;;;17.05;4.07;;;10.00;99.90;;;;;;5060561;28;20114;-83
2024/02/19 04:13:31;;;;;;;16.63;3.72;;;10.00;99.90;;;;;;5077165;28;20050;-84
2024/02/19 04:16:00;;;;;;;14.93;3.50;;;10.10;99.90;;;;;;5060205;28;20028;-84
2024/02/19 04:18:26;;;;;;;13.52;3.30;;;10.10;99.90;;;;;;5077513;28;20340;-84
2024/02/19 04:20:52;;;;;;;14.48;3.20;;;10.10;99.90;;;;;;5077057;28;20116;-83
2024/02/19 04:23:19;;;;;;;16.88;4.25;;;10.10;99.90;;;;;;5077069;28;20364;-84
2024/02/19 04:25:45;;;;;;;15.95;4.00;;;10.10;99.90;;;;;;5060773;28;20024;-84
2024/02/19 04:28:11;;;;;;;12.50;3.63;;;10.10;99.90;;;;;;5060605;28;20031;-83
2024/02/19 04:30:38;;;;;;;18.83;4.32;;;10.00;99.90;;;;;;5060336;28;20032;-84
2024/02/19 04:33:04;;;;;;;16.58;4.07;;;10.00;99.90;;;;;;5059954;28;20477;-84
2024/02/19 04:35:30;;;;;;;20.25;4.68;;;10.00;99.90;;;;;;5076307;28;20020;-85
2024/02/19 04:37:55;;;;;;;13.95;3.90;;;10.00;99.90;;;;;;5076285;28;20103;-85
2024/02/19 04:40:21;;;;;;;16.35;3.88;;;10.00;99.90;;;;;;5076020;28;20379;-85
2024/02/19 04:42:47;;;;;;;13.15;3.60;;;10.00;99.90;;;;;;5076072;28;20050;-84
2024/02/19 04:45:12;;;;;;;17.10;5.00;;;10.00;99.90;;;;;;5059871;28;20044;-85
2024/02/19 04:47:38;;;;;;;21.60;4.97;;;10.00;99.90;;;;;;5094415;28;20024;-84
2024/02/19 04:50:06;;;;;;;20.70;4.57;;;10.00;99.90;;;;;;5059214;28;20090;-84
2024/02/19 04:52:31;;;;;;;16.17;3.58;;;10.00;99.90;;;;;;5076610;28;20356;-85
2024/02/19 04:55:02;;;;;;;15.18;3.88;;;10.00;99.90;;;;;;5059558;28;20035;-85
2024/02/19 04:57:31;;;;;;;19.30;4.68;;;10.00;99.90;;;;;;5060052;28;20024;-85
2024/02/19 04:59:56;;;;;;;16.38;3.80;;;10.00;99.90;;;;;;5059422;28;20161;-84
2024/02/19 05:02:22;;;;;;;17.63;4.25;;;10.00;99.90;;;;;;5059419;28;20462;-85
2024/02/19 05:04:47;;;;;;;14.45;3.80;;;10.00;99.90;;;;;;5075934;28;20036;-84
2024/02/19 05:07:15;;;;;;;17.65;3.30;;;10.00;99.90;;;;;;5059576;28;20025;-85
2024/02/19 05:09:41;;;;;;;11.90;3.22;;;10.10;99.90;;;;;;5060043;28;20024;-84
2024/02/19 05:12:07;;;;;;;14.95;3.65;;;10.10;99.90;;;;;;5059880;28;20043;-84
2024/02/19 05:14:32;;;;;;;14.15;3.78;;;10.10;99.90;;;;;;5061466;28;20055;-84
2024/02/19 05:16:59;;;;;;;16.20;3.70;;;10.10;99.90;;;;;;5081810;28;20020;-84
2024/02/19 05:19:25;;;;;;;15.73;3.58;;;10.10;99.90;;;;;;5084071;28;20019;-85
2024/02/19 05:21:51;;;;;;;16.52;4.47;;;10.20;99.90;;;;;;5077993;28;20052;-83
2024/02/19 05:24:17;;;;;;;18.77;4.53;;;10.20;99.90;;;;;;5096504;28;20043;-84
2024/02/19 05:26:43;;;;;;;15.57;3.85;;;10.20;99.90;;;;;;5074079;28;20115;-84
2024/02/19 05:29:09;;;;;;;15.20;3.67;;;10.20;99.90;;;;;;5055840;28;20448;-83
2024/02/19 05:31:36;;;;;;;14.20;3.85;;;10.20;99.90;;;;;;5056051;28;20032;-84
2024/02/19 05:34:04;;;;;;;13.07;3.75;;;10.10;99.90;;;;;;5072634;28;20361;-83
2024/02/19 05:36:32;;;;;;;13.57;3.85;;;10.10;99.90;;;;;;5073821;28;20029;-84
2024/02/19 05:38:59;;;;;;;15.77;3.80;;;10.10;99.90;;;;;;5072484;28;20119;-84
2024/02/19 05:41:25;;;;;;;15.88;4.70;;;10.10;99.90;;;;;;5055624;28;20033;-83
2024/02/19 05:43:51;;;;;;;15.05;3.65;;;10.10;99.90;;;;;;5072758;28;20040;-90
2024/02/19 05:46:23;;;;;;;16.48;4.00;;;10.10;99.90;;;;;;5056307;28;20024;-88
2024/02/19 05:48:52;;;;;;;13.75;4.28;;;10.00;99.90;;;;;;5073034;28;20025;-88
2024/02/19 05:51:22;;;;;;;15.10;4.35;;;10.00;99.90;;;;;;5056646;28;20403;-89
2024/02/19 05:53:49;;;;;;;12.63;3.72;;;10.10;99.90;;;;;;5073722;28;20017;-88
2024/02/19 05:56:14;;;;;;;16.15;4.13;;;10.10;99.90;;;;;;5079059;28;20021;-88
2024/02/19 05:58:45;;;;;;;15.82;4.43;;;10.10;99.90;;;;;;5064231;28;20021;-88
2024/02/19 06:01:12;;;;;;;12.55;4.78;;;10.10;99.90;;;;;;5077906;28;20525;-88
2024/02/19 06:03:38;;;;;;;16.13;5.10;;;10.10;99.90;;;;;;5078969;28;20033;-87
2024/02/19 06:06:04;;;;;;;14.27;4.55;;;10.20;99.90;;;;;;5087119;28;20118;-87
2024/02/19 06:08:30;;;;;;;15.30;4.72;;;10.10;99.90;;;;;;5071176;28;20096;-86
2024/02/19 06:10:56;;;;;;;16.70;5.40;;;10.10;99.90;;;;;;5083994;28;20035;-87
2024/02/19 06:13:24;;;;;;;15.20;4.90;;;10.20;99.90;;;;;;5080860;28;20485;-86
2024/02/19 06:15:53;;;;;;;16.10;5.38;;;10.20;99.90;;;;;;5076173;28;20036;-86
2024/02/19 06:18:19;;;;;;;13.20;4.68;;;10.20;99.90;;;;;;5076203;28;20031;-87
2024/02/19 06:20:47;;;;;;;13.23;5.00;;;10.20;99.90;;;;;;5059430;28;20309;-87
2024/02/19 06:23:13;;;;;;;14.68;5.15;;;10.20;99.90;;;;;;5059797;28;20048;-87
2024/02/19 06:25:41;;;;;;;15.77;5.32;;;10.20;99.90;;;;;;5075885;28;20028;-87
2024/02/19 06:28:06;;;;;;;15.68;5.10;;;10.20;99.90;;;;;;5059355;28;20043;-87
2024/02/19 06:30:33;;;;;;;12.38;4.40;;;10.30;99.90;;;;;;5076353;28;20028;-88
2024/02/19 06:32:59;;;;;;;15.48;5.10;;;10.20;99.90;;;;;;5078465;28;20058;-88
2024/02/19 06:35:25;;;;;;;14.10;4.82;;;10.20;99.90;;;;;;5077021;28;20086;-88
2024/02/19 06:37:50;;;;;;;13.90;5.10;;;10.30;99.90;;;;;;5060030;28;20041;-88
2024/02/19 06:40:16;;;;;;;16.25;5.50;;;10.30;99.90;;;;;;5077421;28;20021;-87
2024/02/19 06:42:47;;;;;;;13.10;4.75;;;10.30;99.90;;;;;;5081345;28;20033;-87
2024/02/19 06:45:13;;;;;;;14.80;4.95;;;10.30;99.90;;;;;;5071570;28;20025;-88
2024/02/19 06:47:40;;;;;;;11.93;4.78;;;10.30;99.90;;;;;;5099680;28;20016;-86
2024/02/19 06:50:07;;;;;;;11.20;4.03;;;10.30;99.90;;;;;;5100146;28;20035;-87
2024/02/19 06:52:35;;;;;;;17.73;4.82;;;10.30;99.90;;;;;;5099667;28;20047;-86
2024/02/19 06:55:01;;;;;;;13.63;4.28;;;10.30;99.90;;;;;;5096870;28;20032;-87
2024/02/19 06:57:30;;;;;;;13.23;3.72;;;10.30;99.90;;;;;;5059731;28;20025;-88
2024/02/19 06:59:56;;;;;;;15.60;4.22;;;10.30;99.90;;;;;;5076094;28;20025;-88
2024/02/19 07:02:21;;;;;;;15.05;4.05;;;10.20;99.90;;;;;;5075708;28;20039;-88
2024/02/19 07:04:47;;;;;;;13.18;3.95;;;10.30;99.90;;;;;;5075414;28;20375;-87
2024/02/19 07:07:13;;;;;;;14.05;4.60;;;10.30;99.90;;;;;;5075334;28;20375;-88
2024/02/19 07:09:42;;;;;;;13.35;3.83;;;10.20;99.90;;;;;;5075357;28;20422;-88
2024/02/19 07:12:08;;;;;;;11.30;3.88;;;10.20;99.90;;;;;;5074818;28;20036;-88
2024/02/19 07:14:34;;;;;;;12.60;3.78;;;10.20;99.90;;;;;;5074895;28;20058;-88
2024/02/19 07:17:00;;;;;;;12.95;3.67;;;10.20;99.90;;;;;;5074763;28;20025;-88
2024/02/19 07:19:26;;;;;;;9.68;3.97;;;10.20;99.90;;;;;;5074798;28;20103;-88
2024/02/19 07:21:51;;;;;;;12.73;3.67;;;10.30;99.90;;;;;;5074587;28;20125;-89
2024/02/19 07:24:17;;;;;;;11.02;3.80;;;10.30;99.90;;;;;;5058321;28;20033;-87
2024/02/19 07:26:43;;;;;;;10.88;3.17;;;10.30;99.90;;;;;;5076328;28;20040;-87
2024/02/19 07:29:09;;;;;;;11.50;3.25;;;10.30;99.90;;;;;;5074890;28;20033;-86
2024/02/19 07:31:35;;;;;;;11.30;3.25;;;10.40;99.90;;;;;;5074654;28;20052;-87
2024/02/19 07:34:00;;;;;;;11.45;3.55;;;10.40;99.90;;;;;;5058088;28;20024;-87
2024/02/19 07:36:26;;;;;;;10.77;3.10;;;10.40;99.90;;;;;;5058047;28;20029;-87
2024/02/19 07:38:51;;;;;;;11.52;3.03;;;10.40;99.90;;;;;;5057600;28;20094;-87
2024/02/19 07:41:18;;;;;;;11.88;3.33;;;10.40;99.90;;;;;;5057726;28;20028;-87
2024/02/19 07:43:44;;;;;;;9.52;3.22;;;10.40;99.90;;;;;;5057592;28;20086;-88
2024/02/19 07:46:11;;;;;;;14.93;3.83;;;10.40;99.90;;;;;;5073865;28;20491;-88
2024/02/19 07:48:36;;;;;;;8.77;2.97;;;10.40;99.90;;;;;;5075381;28;20108;-87
2024/02/19 07:51:02;;;;;;;11.52;3.25;;;10.50;99.90;;;;;;5074332;28;20060;-87
2024/02/19 07:53:31;;;;;;;13.07;3.42;;;10.50;99.90;;;;;;5074259;28;20031;-88
2024/02/19 07:56:16;;;;;;;11.98;3.92;;;10.50;99.90;;;;;;5057060;28;20028;-88
2024/02/19 07:58:42;;;;;;;10.25;3.88;;;10.50;99.90;;;;;;5073269;28;20118;-87
2024/02/19 08:01:08;;;;;;;10.90;3.90;;;10.50;99.90;;;;;;5057085;28;20445;-88
2024/02/19 08:03:35;;;;;;;9.75;3.70;;;10.50;99.90;;;;;;5073491;28;20020;-88
2024/02/19 08:06:11;;;;;;;14.68;4.82;;;10.50;99.90;;;;;;5073178;28;20048;-88
2024/02/19 08:08:36;;;;;;;12.15;3.65;;;10.50;99.90;;;;;;5075210;28;20035;-87
2024/02/19 08:11:04;;;;;;;8.85;3.40;;;10.60;99.90;;;;;;5056669;28;20220;-88
2024/02/19 08:13:30;;;;;;;12.35;3.67;;;10.60;99.90;;;;;;5057785;28;20398;-88
2024/02/19 08:15:56;;;;;;;10.50;3.80;;;10.70;99.90;;;;;;5074484;28;20078;-87
2024/02/19 08:18:23;;;;;;;15.63;3.40;;;10.70;99.90;;;;;;5086061;28;20056;-87
2024/02/19 08:20:51;;;;;;;11.75;4.72;;;10.70;99.90;;;;;;5080885;28;20045;-85
2024/02/19 08:23:18;;;;;;;11.27;3.40;;;10.80;99.90;;;;;;5097748;28;20032;-84
2024/02/19 08:25:45;;;;;;;10.02;3.55;;;10.80;99.90;;;;;;5081027;28;20017;-86
2024/02/19 08:28:10;;;;;;;12.52;3.72;;;10.80;99.90;;;;;;5067526;28;20024;-87
2024/02/19 08:30:36;;;;;;;13.93;3.80;;;10.90;99.90;;;;;;5074648;28;20487;-87
2024/02/19 08:33:02;;;;;;;13.05;4.05;;;10.90;99.90;;;;;;5073531;28;20036;-87
2024/02/19 08:35:30;;;;;;;12.40;3.67;;;10.90;99.90;;;;;;5056869;28;20029;-88
2024/02/19 08:37:58;;;;;;;12.82;4.25;;;10.80;99.90;;;;;;5073333;28;20048;-88
2024/02/19 08:40:24;;;;;;;12.00;3.97;;;10.90;99.90;;;;;;5056822;28;20056;-88
2024/02/19 08:42:50;;;;;;;13.05;3.83;;;10.90;99.90;;;;;;5073565;28;20071;-88
2024/02/19 08:45:16;;;;;;;12.18;3.88;;;10.90;99.90;;;;;;5056694;28;20032;-86
2024/02/19 08:47:42;;;;;;;10.73;3.75;;;10.90;99.90;;;;;;5073368;28;20119;-86
2024/02/19 08:50:08;;;;;;;13.15;3.88;;;10.90;99.90;;;;;;5057082;28;20028;-87
2024/02/19 08:52:36;;;;;;;13.55;4.20;;;11.00;99.90;;;;;;5074850;28;20453;-87
2024/02/19 08:55:02;;;;;;;15.77;4.50;;;11.00;99.90;;;;;;5077340;28;20021;-88
2024/02/19 08:57:30;;;;;;;16.20;4.35;;;11.10;99.90;;;;;;5076213;28;20028;-87
2024/02/19 08:59:56;;;;;;;11.85;4.30;;;11.10;99.90;;;;;;5077668;28;20029;-87
2024/02/19 09:02:22;;;;;;;9.48;3.75;;;11.10;99.90;;;;;;5060388;28;20039;-87
2024/02/19 09:04:47;;;;;;;13.93;4.20;;;11.20;99.90;;;;;;5058660;28;20029;-87
2024/02/19 09:07:16;;;;;;;13.90;4.30;;;11.20;99.90;;;;;;5075533;28;20021;-88
2024/02/19 09:09:44;;;;;;;11.27;4.00;;;11.20;99.90;;;;;;5056262;28;20027;-87
2024/02/19 09:12:13;;;;;;;11.93;4.30;;;11.20;99.90;;;;;;5056139;28;20028;-84
2024/02/19 09:14:39;;;;;;;10.77;4.47;;;11.20;99.90;;;;;;5056085;28;20090;-87
2024/02/19 09:17:05;;;;;;;12.15;4.28;;;11.20;99.90;;;;;;5072751;28;20468;-87
2024/02/19 09:23:01;;;;;;;13.02;5.63;;;11.30;99.90;;;;;;5065455;28;20040;-87
2024/02/19 09:25:32;;;;;;;11.52;4.22;;;11.30;99.90;;;;;;5072919;28;20028;-87
2024/02/19 09:27:58;;;;;;;10.93;4.70;;;11.20;99.90;;;;;;5072679;28;20020;-86
2024/02/19 09:30:24;;;;;;;11.20;4.13;;;11.20;99.90;;;;;;5057267;28;20086;-87
2024/02/19 09:32:50;;;;;;;13.13;4.78;;;11.20;99.90;;;;;;5077839;28;20032;-87
2024/02/19 09:35:16;;;;;;;12.15;4.60;;;11.20;99.90;;;;;;5077623;28;20100;-89
2024/02/19 09:37:42;;;;;;;15.93;4.55;;;11.20;99.90;;;;;;5076001;28;20036;-87
2024/02/19 09:40:11;;;;;;;14.98;5.20;;;11.30;99.90;;;;;;5076466;28;20027;-88
2024/02/19 09:42:37;;;;;;;12.07;4.63;;;11.30;99.90;;;;;;5076374;28;20025;-87
2024/02/19 09:45:04;;;;;;;11.73;4.72;;;11.30;99.90;;;;;;5076611;28;20078;-87
2024/02/19 09:47:31;;;;;;;11.32;4.32;;;11.30;99.90;;;;;;5059789;28;20057;-87
2024/02/19 09:50:01;;;;;;;13.98;4.38;;;11.30;99.90;;;;;;5081317;28;20063;-87
2024/02/19 09:52:27;;;;;;;11.55;4.47;;;11.40;99.90;;;;;;5100361;28;20019;-86
2024/02/19 09:54:52;;;;;;;13.18;4.90;;;11.30;99.90;;;;;;5100995;28;20025;-85
2024/02/19 09:57:19;;;;;;;13.00;4.78;;;11.40;99.90;;;;;;5100235;28;20032;-84
2024/02/19 09:59:45;;;;;;;11.48;4.55;;;11.40;99.90;;;;;;5077907;28;20028;-87
2024/02/19 10:02:18;;;;;;;12.05;5.07;;;11.40;99.90;;;;;;5076930;28;20024;-87
2024/02/19 10:04:48;;;;;;;13.23;5.30;;;11.40;99.90;;;;;;5076225;28;20448;-86
2024/02/19 10:07:18;;;;;;;10.23;4.90;;;11.50;99.90;;;;;;5059221;28;20016;-87
2024/02/19 10:09:44;;;;;;;12.68;5.40;;;11.50;99.90;;;;;;5077518;28;20033;-86
2024/02/19 10:12:10;;;;;;;10.25;5.65;;;11.50;99.90;;;;;;5075751;28;20078;-87
2024/02/19 10:14:36;;;;;;;13.43;5.78;;;11.50;99.90;;;;;;5075464;28;20522;-87
2024/02/19 10:17:01;;;;;;;16.98;6.20;;;11.50;99.90;;;;;;5075385;28;20028;-86
2024/02/19 10:19:30;;;;;;;16.08;6.00;;;11.60;99.90;;;;;;5058570;28;20508;-86
2024/02/19 10:21:57;;;;;;;16.30;6.35;;;11.60;99.90;;;;;;5075276;28;20488;-86
2024/02/19 10:24:23;;;;;;;12.52;5.50;;;11.60;99.90;;;;;;5058377;28;20509;-86
2024/02/19 10:26:49;;;;;;;12.68;5.63;;;11.70;99.90;;;;;;5075859;28;20017;-86
2024/02/19 10:29:15;;;;;;;15.98;6.95;;;11.70;99.90;;;;;;5075856;28;20027;-86
2024/02/19 10:31:41;;;;;;;16.17;6.97;;;11.80;99.90;;;;;;5075159;28;20028;-87
2024/02/19 10:34:11;;;;;;;16.33;7.22;;;11.80;99.90;;;;;;5081621;28;20031;-85
2024/02/19 10:36:37;;;;;;;13.20;6.63;;;11.70;99.90;;;;;;5077719;28;20074;-87
2024/02/19 10:39:06;;;;;;;17.65;6.70;;;11.70;99.90;;;;;;5076884;28;20025;-87
2024/02/19 10:41:38;;;;;;;12.32;6.20;;;11.70;99.90;;;;;;5075216;28;20442;-86
2024/02/19 10:44:05;;;;;;;18.08;6.72;;;11.70;99.90;;;;;;5075516;28;20443;-87
2024/02/19 10:46:32;;;;;;;15.25;6.80;;;11.70;99.90;;;;;;5058544;28;20039;-87
2024/02/19 10:49:01;;;;;;;16.33;6.68;;;11.70;99.90;;;;;;5076035;28;20020;-87
2024/02/19 10:51:30;;;;;;;13.48;6.05;;;11.70;99.90;;;;;;5077059;28;20059;-88
2024/02/19 10:54:03;;;;;;;18.00;7.55;;;11.70;99.90;;;;;;5058822;28;20016;-87
2024/02/19 10:56:43;;;;;;;15.60;6.82;;;11.70;99.90;;;;;;5076365;28;20371;-88
2024/02/19 10:59:09;;;;;;;14.18;6.20;;;11.60;99.90;;;;;;5076512;28;20020;-87
2024/02/19 11:01:43;;;;;;;11.10;6.05;;;11.70;99.90;;;;;;5058435;28;20106;-86
2024/02/19 11:04:15;;;;;;;11.95;6.25;;;11.70;99.90;;;;;;5075427;28;20088;-86
2024/02/19 11:06:56;;;;;;;12.82;6.07;;;11.70;99.90;;;;;;5058265;28;20032;-86
2024/02/19 11:09:26;;;;;;;12.82;6.20;;;11.70;99.90;;;;;;5074883;28;20067;-87
2024/02/19 11:11:55;;;;;;;12.27;6.03;;;11.70;99.90;;;;;;5075724;28;20035;-87
2024/02/19 11:14:33;;;;;;;11.77;5.88;;;11.80;99.90;;;;;;5074639;28;20491;-87
2024/02/19 11:17:00;;;;;;;12.50;6.05;;;11.70;99.90;;;;;;5074922;28;20490;-85
2024/02/19 11:19:28;;;;;;;14.95;6.28;;;11.70;99.90;;;;;;5076886;28;20115;-85
2024/02/19 11:22:06;;;;;;;12.05;6.10;;;11.70;99.90;;;;;;5092903;28;20044;-86
2024/02/19 11:24:33;;;;;;;13.13;5.72;;;11.80;99.90;;;;;;5097785;28;20012;-86
2024/02/19 11:26:59;;;;;;;13.93;6.85;;;11.80;99.90;;;;;;5102120;28;20012;-85
2024/02/19 11:29:28;;;;;;;13.35;6.18;;;11.80;99.90;;;;;;5101974;28;20020;-88
2024/02/19 11:32:05;;;;;;;16.38;5.75;;;11.80;99.90;;;;;;5102052;28;20016;-86
2024/02/19 11:34:32;;;;;;;12.55;6.18;;;11.80;99.90;;;;;;5105548;28;20076;-86
2024/02/19 11:37:05;;;;;;;14.75;6.25;;;11.70;99.90;;;;;;5061825;28;20046;-86
2024/02/19 11:39:31;;;;;;;12.40;5.63;;;11.70;99.90;;;;;;5077298;28;20025;-86
2024/02/19 11:42:01;;;;;;;12.70;6.53;;;11.80;99.90;;;;;;5077515;28;20032;-85
2024/02/19 11:44:31;;;;;;;17.05;6.20;;;11.80;99.90;;;;;;5095521;28;20107;-86
2024/02/19 11:46:58;;;;;;;13.43;5.63;;;11.70;99.90;;;;;;5077292;28;20106;-85
2024/02/19 11:49:25;;;;;;;13.82;5.90;;;11.80;99.90;;;;;;5095341;28;20072;-87
2024/02/19 11:51:51;;;;;;;13.85;5.72;;;11.80;99.90;;;;;;5080816;28;20442;-87
2024/02/19 11:54:18;;;;;;;12.32;5.40;;;11.80;99.90;;;;;;5084971;28;20028;-87
2024/02/19 11:56:44;;;;;;;10.57;5.03;;;11.80;99.90;;;;;;5082735;28;20428;-87
2024/02/19 11:59:10;;;;;;;14.90;6.47;;;11.80;99.90;;;;;;5080845;28;20019;-86
2024/02/19 12:01:37;;;;;;;15.15;5.88;;;11.80;99.90;;;;;;5062322;28;20036;-87
2024/02/19 12:04:05;;;;;;;11.18;6.15;;;11.80;99.90;;;;;;5077325;28;20085;-86
2024/02/19 12:06:36;;;;;;;13.80;5.40;;;11.90;99.90;;;;;;5095406;28;20061;-87
2024/02/19 12:09:04;;;;;;;9.38;5.45;;;11.90;99.90;;;;;;5060090;28;20080;-86
2024/02/19 12:11:31;;;;;;;12.07;5.53;;;11.90;99.90;;;;;;5077030;28;20388;-86
2024/02/19 12:13:56;;;;;;;12.30;5.53;;;11.90;99.90;;;;;;5076758;28;20024;-86
2024/02/19 12:16:25;;;;;;;13.00;5.45;;;11.90;99.90;;;;;;5059784;28;20209;-87
2024/02/19 12:18:51;;;;;;;11.85;5.40;;;11.90;99.90;;;;;;5094635;28;20016;-86
2024/02/19 12:21:17;;;;;;;15.50;6.05;;;11.90;99.90;;;;;;5076571;28;20043;-86
2024/02/19 12:23:43;;;;;;;13.57;5.35;;;11.90;99.90;;;;;;5076794;28;20032;-86
2024/02/19 12:26:10;;;;;;;12.57;5.88;;;11.90;99.90;;;;;;5076493;28;20021;-87
2024/02/19 12:28:38;;;;;;;13.70;5.05;;;11.90;99.90;;;;;;5076417;28;20024;-87
2024/02/19 12:31:03;;;;;;;11.15;5.25;;;11.90;99.90;;;;;;5060292;28;20024;-87
2024/02/19 12:33:29;;;;;;;12.23;5.45;;;11.90;99.90;;;;;;5094373;28;20051;-87
2024/02/19 12:35:55;;;;;;;11.23;5.15;;;11.80;99.90;;;;;;5094566;28;20076;-86
2024/02/19 12:38:20;;;;;;;14.88;5.22;;;11.80;99.90;;;;;;5059940;28;20498;-87
2024/02/19 12:40:46;;;;;;;16.05;5.55;;;11.80;99.90;;;;;;5059701;28;20169;-86